createdAt,value
2022-08-20T00:02:13.772Z,83.00
2022-08-20T00:04:42.065Z,82.30
2022-08-20T00:07:11.440Z,81.70
2022-08-20T00:09:39.705Z,83.10
2022-08-20T00:12:08.687Z,83.00
2022-08-20T00:14:37.403Z,81.30
2022-08-20T00:17:06.921Z,82.30
2022-08-20T00:19:35.393Z,82.90
2022-08-20T00:22:03.430Z,81.80
2022-08-20T00:24:32.957Z,83.10
2022-08-20T00:27:00.967Z,83.00
2022-08-20T00:29:29.036Z,83.20
2022-08-20T00:31:56.981Z,85.80
2022-08-20T00:34:25.020Z,85.60
2022-08-20T00:36:53.011Z,85.40
2022-08-20T00:39:21.020Z,84.10
2022-08-20T00:41:51.925Z,87.20
2022-08-20T00:44:22.741Z,88.30
2022-08-20T00:46:52.320Z,87.90
2022-08-20T00:49:24.691Z,88.60
2022-08-20T00:51:57.974Z,89.50
2022-08-20T00:54:31.087Z,88.20
2022-08-20T00:57:04.471Z,87.90
2022-08-20T00:59:36.205Z,89.70
2022-08-20T01:02:07.562Z,89.10
2022-08-20T01:04:37.439Z,88.80
2022-08-20T01:07:07.407Z,87.30
2022-08-20T01:09:57.662Z,89.50
2022-08-20T01:12:26.888Z,88.10
2022-08-20T01:14:56.083Z,89.10
2022-08-20T01:17:26.576Z,90.00
2022-08-20T01:19:58.707Z,90.50
2022-08-20T01:22:57.082Z,90.60
2022-08-20T01:25:31.724Z,90.80
2022-08-20T01:28:01.400Z,91.00
2022-08-20T01:30:30.781Z,93.00
2022-08-20T01:32:58.809Z,91.90
2022-08-20T01:35:27.562Z,67.80
2022-08-20T01:37:56.055Z,69.70
2022-08-20T01:40:36.854Z,93.90
2022-08-20T01:43:06.445Z,93.20
2022-08-20T01:45:36.373Z,92.40
2022-08-20T01:48:06.142Z,70.00
2022-08-20T01:50:37.818Z,67.30
2022-08-20T01:53:12.462Z,66.40
2022-08-20T01:55:40.617Z,87.50
2022-08-20T01:58:10.070Z,73.20
2022-08-20T02:00:38.298Z,69.70
2022-08-20T02:03:07.593Z,69.40
2022-08-20T02:05:36.025Z,70.00
2022-08-20T02:08:04.663Z,70.50
2022-08-20T02:10:33.272Z,69.10
2022-08-20T02:13:02.236Z,69.30
2022-08-20T02:15:37.104Z,67.60
2022-08-20T02:18:08.232Z,68.10
2022-08-20T02:20:37.301Z,68.00
2022-08-20T02:23:07.629Z,87.00
2022-08-20T02:25:38.632Z,98.10
2022-08-20T02:28:10.522Z,98.80
2022-08-20T02:30:43.244Z,98.90
2022-08-20T02:33:15.098Z,99.50
2022-08-20T02:35:46.846Z,99.90
2022-08-20T02:38:15.887Z,99.90
2022-08-20T02:40:46.007Z,99.60
2022-08-20T02:43:15.485Z,99.90
2022-08-20T02:45:44.837Z,67.00
2022-08-20T02:48:21.379Z,66.90
2022-08-20T02:50:51.758Z,67.00
2022-08-20T02:53:20.066Z,66.70
2022-08-20T02:55:48.358Z,67.50
2022-08-20T02:58:17.238Z,67.00
2022-08-20T03:00:47.274Z,67.00
2022-08-20T03:03:15.785Z,67.10
2022-08-20T03:05:45.874Z,67.10
2022-08-20T03:08:15.601Z,65.40
2022-08-20T03:10:46.789Z,66.40
2022-08-20T03:13:16.439Z,67.00
2022-08-20T03:15:48.567Z,66.30
2022-08-20T03:18:18.115Z,67.10
2022-08-20T03:20:47.416Z,67.10
2022-08-20T03:23:21.738Z,66.00
2022-08-20T03:25:50.445Z,66.10
2022-08-20T03:28:19.435Z,66.00
2022-08-20T03:30:48.908Z,66.40
2022-08-20T03:33:17.259Z,66.30
2022-08-20T03:35:45.294Z,65.80
2022-08-20T03:38:15.218Z,66.70
2022-08-20T03:40:43.678Z,67.60
2022-08-20T03:43:12.314Z,66.60
2022-08-20T03:45:42.376Z,68.00
2022-08-20T03:48:14.962Z,69.60
2022-08-20T03:50:43.302Z,69.90
2022-08-20T03:53:12.259Z,71.00
2022-08-20T03:55:45.419Z,72.30
2022-08-20T03:58:22.183Z,70.30
2022-08-20T04:01:03.801Z,70.70
2022-08-20T04:03:33.284Z,70.00
2022-08-20T04:06:01.293Z,70.40
2022-08-20T04:08:30.524Z,69.80
2022-08-20T04:10:59.994Z,71.30
2022-08-20T04:13:29.763Z,70.80
2022-08-20T04:15:58.760Z,71.00
2022-08-20T04:18:27.350Z,70.80
2022-08-20T04:20:56.944Z,70.80
2022-08-20T04:23:24.918Z,70.30
2022-08-20T04:25:52.904Z,69.10
2022-08-20T04:28:27.068Z,67.70
2022-08-20T04:30:55.808Z,66.70
2022-08-20T04:33:33.895Z,68.20
2022-08-20T04:36:06.606Z,69.80
2022-08-20T04:38:47.848Z,67.30
2022-08-20T04:41:22.872Z,66.70
2022-08-20T04:43:53.029Z,68.30
2022-08-20T04:46:22.427Z,68.10
2022-08-20T04:48:50.787Z,67.00
2022-08-20T04:51:23.307Z,67.20
2022-08-20T04:53:54.314Z,64.60
2022-08-20T04:56:24.573Z,64.30
2022-08-20T04:58:54.108Z,66.10
2022-08-20T05:01:23.635Z,66.00
2022-08-20T05:03:54.686Z,64.90
2022-08-20T05:06:28.512Z,66.80
2022-08-20T05:08:58.171Z,67.10
2022-08-20T05:11:33.518Z,66.40
2022-08-20T05:14:05.364Z,62.10
2022-08-20T05:16:37.855Z,62.10
2022-08-20T05:19:07.046Z,62.30
2022-08-20T05:21:36.364Z,61.60
2022-08-20T05:24:04.961Z,63.10
2022-08-20T05:26:34.219Z,62.70
2022-08-20T05:29:04.968Z,62.90
2022-08-20T05:31:34.701Z,67.00
2022-08-20T05:34:03.356Z,62.30
2022-08-20T05:36:31.346Z,61.30
2022-08-20T05:39:00.640Z,62.00
2022-08-20T05:41:30.392Z,62.60
2022-08-20T05:44:01.691Z,64.50
2022-08-20T05:46:31.089Z,63.90
2022-08-20T05:49:00.239Z,65.10
2022-08-20T05:51:28.850Z,66.10
2022-08-20T05:53:58.286Z,66.90
2022-08-20T05:56:30.408Z,66.90
2022-08-20T05:59:00.182Z,66.10
2022-08-20T06:01:28.249Z,66.30
2022-08-20T06:04:15.022Z,65.60
2022-08-20T06:06:45.230Z,66.20
2022-08-20T06:09:16.462Z,65.20
2022-08-20T06:11:59.250Z,65.30
2022-08-20T06:14:27.458Z,62.90
2022-08-20T06:16:57.648Z,64.90
2022-08-20T06:19:27.202Z,63.70
2022-08-20T06:22:00.597Z,64.10
2022-08-20T06:24:28.787Z,64.40
2022-08-20T06:26:58.655Z,62.00
2022-08-20T06:29:27.895Z,59.30
2022-08-20T06:31:57.005Z,61.20
2022-08-20T06:34:28.285Z,60.10
2022-08-20T06:36:59.358Z,63.40
2022-08-20T06:39:29.970Z,58.80
2022-08-20T06:41:59.662Z,52.00
2022-08-20T06:44:28.426Z,54.00
2022-08-20T06:47:00.934Z,57.10
2022-08-20T06:49:29.000Z,52.50
2022-08-20T06:52:03.695Z,54.10
2022-08-20T06:54:32.770Z,56.80
2022-08-20T06:57:02.387Z,51.50
2022-08-20T06:59:30.399Z,51.30
2022-08-20T07:01:58.378Z,55.50
2022-08-20T07:04:27.724Z,51.80
2022-08-20T07:06:57.605Z,52.30
2022-08-20T07:09:28.170Z,48.60
2022-08-20T07:11:56.602Z,49.90
2022-08-20T07:14:26.074Z,53.00
2022-08-20T07:16:54.112Z,54.00
2022-08-20T07:19:22.436Z,54.50
2022-08-20T07:21:50.678Z,48.10
2022-08-20T07:24:18.647Z,49.20
2022-08-20T07:26:46.869Z,51.10
2022-08-20T07:29:14.835Z,52.90
2022-08-20T07:32:01.930Z,51.90
2022-08-20T07:34:31.503Z,48.10
2022-08-20T07:37:01.120Z,51.20
2022-08-20T07:39:30.020Z,53.60
2022-08-20T07:42:04.030Z,54.20
2022-08-20T07:44:32.127Z,54.20
2022-08-20T07:47:01.557Z,49.10
2022-08-20T07:49:30.988Z,51.20
2022-08-20T07:51:59.029Z,48.20
2022-08-20T07:54:28.018Z,49.10
2022-08-20T07:57:02.501Z,51.20
2022-08-20T07:59:30.967Z,49.60
2022-08-20T08:01:59.448Z,50.50
2022-08-20T08:04:28.796Z,49.60
2022-08-20T08:07:00.035Z,50.70
2022-08-20T08:09:29.302Z,57.20
2022-08-20T08:12:01.808Z,54.70
2022-08-20T08:14:32.735Z,70.20
2022-08-20T08:17:04.348Z,42.20
2022-08-20T08:19:38.712Z,41.30
2022-08-20T08:22:10.926Z,41.30
2022-08-20T08:24:39.936Z,42.20
2022-08-20T08:27:08.925Z,43.30
2022-08-20T08:29:37.360Z,40.20
2022-08-20T08:32:06.972Z,36.80
2022-08-20T08:34:37.729Z,68.20
2022-08-20T08:37:05.949Z,37.20
2022-08-20T08:39:35.055Z,36.30
2022-08-20T08:42:05.184Z,35.70
2022-08-20T08:44:38.619Z,33.90
2022-08-20T08:47:18.498Z,33.40
2022-08-20T08:49:49.997Z,34.10
2022-08-20T08:52:22.315Z,33.10
2022-08-20T08:54:55.259Z,34.20
2022-08-20T08:57:24.094Z,46.80
2022-08-20T09:00:04.950Z,83.00
2022-08-20T09:12:33.127Z,78.10
2022-08-20T09:15:01.468Z,75.70
2022-08-20T09:17:29.569Z,77.70
2022-08-20T09:19:57.558Z,70.90
2022-08-20T09:22:26.942Z,73.60
2022-08-20T09:24:54.950Z,74.60
2022-08-20T09:27:22.949Z,73.70
2022-08-20T09:29:53.369Z,75.30
2022-08-20T09:32:25.066Z,30.00
2022-08-20T09:34:56.906Z,29.70
2022-08-20T09:40:06.506Z,43.20
2022-08-20T09:42:40.748Z,28.30
2022-08-20T09:45:11.685Z,26.50
2022-08-20T09:47:54.799Z,24.20
2022-08-20T09:50:24.332Z,26.00
2022-08-20T09:52:55.210Z,28.70
2022-08-20T09:55:29.296Z,25.80
2022-08-20T09:57:57.521Z,34.10
2022-08-20T10:00:25.703Z,39.30
2022-08-20T10:02:53.685Z,36.50
2022-08-20T10:05:21.764Z,41.50
2022-08-20T10:07:51.075Z,33.60
2022-08-20T10:10:20.422Z,37.20
2022-08-20T10:12:52.822Z,44.40
2022-08-20T10:15:22.805Z,42.60
2022-08-20T10:17:50.898Z,49.80
2022-08-20T10:20:19.650Z,52.60
2022-08-20T10:22:47.673Z,48.80
2022-08-20T10:25:16.707Z,42.70
2022-08-20T10:27:46.259Z,39.30
2022-08-20T10:30:14.552Z,39.50
2022-08-20T10:32:42.765Z,46.50
2022-08-20T10:35:10.859Z,56.40
2022-08-20T10:37:38.837Z,49.10
2022-08-20T10:40:08.649Z,49.40
2022-08-20T10:42:40.527Z,56.40
2022-08-20T10:45:13.605Z,53.10
2022-08-20T10:47:41.894Z,51.60
2022-08-20T10:50:13.536Z,51.70
2022-08-20T10:52:41.598Z,55.00
2022-08-20T10:55:10.831Z,57.60
2022-08-20T10:57:40.653Z,64.90
2022-08-20T11:00:10.212Z,68.30
2022-08-20T11:02:40.093Z,69.00
2022-08-20T11:05:09.940Z,69.30
2022-08-20T11:07:55.314Z,70.60
2022-08-20T11:10:29.906Z,73.40
2022-08-20T11:12:58.272Z,71.40
2022-08-20T11:15:26.368Z,71.40
2022-08-20T11:17:56.408Z,70.80
2022-08-20T11:20:26.379Z,70.70
2022-08-20T11:22:55.544Z,67.90
2022-08-20T11:25:23.682Z,72.80
2022-08-20T11:27:52.994Z,65.10
2022-08-20T11:30:24.002Z,66.70
2022-08-20T11:32:51.999Z,62.80
2022-08-20T11:35:48.389Z,67.30
2022-08-20T11:38:12.254Z,69.00
2022-08-20T11:40:40.266Z,63.30
2022-08-20T11:43:14.786Z,57.00
2022-08-20T11:45:43.724Z,56.30
2022-08-20T11:48:11.742Z,59.10
2022-08-20T11:50:41.150Z,54.30
2022-08-20T11:53:09.228Z,58.60
2022-08-20T11:55:38.626Z,61.50
2022-08-20T11:58:07.119Z,51.60
2022-08-20T12:00:36.843Z,59.80
2022-08-20T12:03:09.354Z,59.90
2022-08-20T12:05:40.893Z,50.10
2022-08-20T12:08:09.427Z,52.50
2022-08-20T12:10:38.164Z,49.00
2022-08-20T12:13:06.272Z,51.20
2022-08-20T12:15:34.317Z,57.70
2022-08-20T12:18:02.413Z,50.20
2022-08-20T12:20:30.404Z,49.30
2022-08-20T12:22:59.899Z,53.50
2022-08-20T12:25:28.187Z,52.60
2022-08-20T12:27:56.424Z,46.10
2022-08-20T12:30:25.681Z,46.10
2022-08-20T12:32:53.709Z,46.40
2022-08-20T12:35:22.039Z,49.60
2022-08-20T12:37:50.211Z,44.30
2022-08-20T12:40:31.845Z,41.30
2022-08-20T12:43:00.661Z,46.00
2022-08-20T12:45:28.917Z,40.50
2022-08-20T12:48:02.971Z,42.10
2022-08-20T12:50:31.984Z,43.80
2022-08-20T12:53:00.325Z,41.10
2022-08-20T12:55:30.350Z,36.50
2022-08-20T12:58:00.908Z,37.50
2022-08-20T13:00:32.090Z,36.40
2022-08-20T13:03:02.129Z,33.50
2022-08-20T13:05:30.963Z,30.60
2022-08-20T13:07:59.210Z,30.90
2022-08-20T13:10:31.536Z,29.70
2022-08-20T13:13:01.791Z,28.80
2022-08-20T13:15:30.242Z,30.60
2022-08-20T13:18:01.604Z,29.90
2022-08-20T13:20:34.062Z,29.00
2022-08-20T13:23:03.461Z,32.60
2022-08-20T13:25:33.620Z,37.50
2022-08-20T13:28:04.853Z,37.90
2022-08-20T13:30:34.892Z,36.50
2022-08-20T13:33:03.538Z,38.40
2022-08-20T13:35:32.257Z,40.40
2022-08-20T13:38:00.463Z,40.80
2022-08-20T13:40:28.558Z,43.30
2022-08-20T13:42:58.295Z,45.20
2022-08-20T13:52:56.194Z,73.00
2022-08-20T14:13:00.791Z,39.60
2022-08-20T14:18:00.382Z,56.10
2022-08-20T14:20:33.987Z,57.00
2022-08-20T14:25:32.903Z,63.50
2022-08-20T14:28:09.470Z,24.20
2022-08-20T14:30:39.198Z,23.50
2022-08-20T14:33:07.252Z,21.70
2022-08-20T14:35:35.381Z,23.70
2022-08-20T14:38:05.444Z,28.70
2022-08-20T14:40:34.360Z,27.80
2022-08-20T14:43:03.168Z,29.60
2022-08-20T15:42:57.077Z,55.90
2022-08-20T15:45:26.758Z,42.80
2022-08-20T15:48:00.458Z,25.30
2022-08-20T19:06:10.909Z,51.50
2022-08-20T19:08:49.757Z,52.60
2022-08-20T19:11:46.918Z,55.80
2022-08-20T19:14:43.943Z,55.10
2022-08-20T19:17:18.024Z,53.60
2022-08-20T19:19:46.164Z,54.40
2022-08-20T19:22:20.545Z,48.30
2022-08-20T19:24:56.625Z,44.60
2022-08-20T19:27:25.564Z,44.70
2022-08-20T19:29:56.642Z,43.90
2022-08-20T19:32:27.735Z,43.80
2022-08-20T19:34:59.088Z,44.40
2022-08-20T19:37:39.976Z,45.20
2022-08-20T19:40:22.813Z,44.70
2022-08-20T19:42:54.065Z,45.10
2022-08-20T19:45:30.713Z,45.00
2022-08-20T19:48:27.454Z,44.90
2022-08-20T19:51:05.892Z,44.90
2022-08-20T19:53:36.599Z,46.80
2022-08-20T19:56:07.736Z,47.30
2022-08-20T19:58:37.411Z,46.70
2022-08-20T20:01:12.066Z,46.80
2022-08-20T20:03:40.258Z,46.50
2022-08-20T20:06:16.751Z,47.20
2022-08-20T20:08:56.461Z,49.10
2022-08-20T20:11:30.788Z,51.50
2022-08-20T20:14:03.639Z,52.40
2022-08-20T20:16:33.887Z,54.70
2022-08-20T20:19:25.287Z,54.70
2022-08-20T20:21:54.080Z,54.70
2022-08-20T20:24:25.590Z,50.80
2022-08-20T20:26:53.707Z,52.90
2022-08-20T20:29:25.941Z,52.30
2022-08-20T20:31:57.473Z,50.90
2022-08-20T20:34:28.134Z,49.40
2022-08-20T20:37:08.360Z,49.30
2022-08-20T20:39:38.138Z,49.30
2022-08-20T20:42:08.981Z,49.60
2022-08-20T20:44:39.340Z,49.80
2022-08-20T20:47:18.006Z,50.90
2022-08-20T20:49:51.263Z,50.60
2022-08-20T20:52:24.492Z,49.50
2022-08-20T20:55:04.320Z,49.80
2022-08-20T20:57:37.875Z,48.90
2022-08-20T21:00:11.393Z,49.90
2022-08-20T21:02:40.937Z,51.70
2022-08-20T21:05:10.496Z,53.50
2022-08-20T21:07:50.555Z,53.80
2022-08-20T21:10:20.602Z,53.80
2022-08-20T21:12:52.657Z,54.90
2022-08-20T21:15:22.819Z,56.20
2022-08-20T21:17:52.728Z,55.30
2022-08-20T21:20:22.474Z,53.90
2022-08-20T21:22:50.630Z,53.40
2022-08-20T21:25:20.297Z,53.00
2022-08-20T21:27:51.181Z,52.10
2022-08-20T21:30:20.532Z,52.20
2022-08-20T21:32:48.669Z,53.40
2022-08-20T21:35:19.043Z,54.30
2022-08-20T21:37:47.144Z,55.40
2022-08-20T21:40:17.493Z,55.50
2022-08-20T21:42:50.044Z,55.10
2022-08-20T21:45:20.061Z,54.50
2022-08-20T21:47:48.751Z,55.90
2022-08-20T21:50:19.552Z,56.10
2022-08-20T21:52:55.276Z,55.60
2022-08-20T21:55:30.386Z,54.60
2022-08-20T21:57:59.280Z,53.70
2022-08-20T22:00:52.359Z,55.10
2022-08-20T22:03:21.887Z,55.00
2022-08-20T22:05:51.746Z,55.80
2022-08-20T22:08:21.075Z,55.80
2022-08-20T22:10:54.651Z,56.50
2022-08-20T22:13:22.654Z,55.30
2022-08-20T22:15:50.836Z,55.60
2022-08-20T22:18:18.931Z,56.20
2022-08-20T22:20:47.167Z,56.50
2022-08-20T22:23:16.721Z,57.30
2022-08-20T22:25:44.876Z,57.20
2022-08-20T22:28:13.226Z,57.30
2022-08-20T22:30:42.441Z,58.70
2022-08-20T22:33:13.558Z,59.00
2022-08-20T22:35:46.907Z,58.40
2022-08-20T22:38:16.551Z,57.90
2022-08-20T22:40:45.293Z,58.30
2022-08-20T22:43:13.663Z,59.30
2022-08-20T22:45:44.489Z,60.00
2022-08-20T22:48:15.769Z,59.80
2022-08-20T22:50:44.946Z,60.60
2022-08-20T22:53:14.471Z,59.70
2022-08-20T22:55:43.972Z,60.10
2022-08-20T22:58:13.695Z,59.30
2022-08-20T23:00:42.536Z,60.60
2022-08-20T23:03:11.535Z,61.40
2022-08-20T23:05:39.657Z,60.00
2022-08-20T23:08:08.363Z,58.70
2022-08-20T23:10:38.003Z,56.90
2022-08-20T23:13:08.526Z,59.70
2022-08-20T23:15:41.415Z,58.10
2022-08-20T23:18:16.495Z,59.90
2022-08-20T23:20:49.555Z,60.50
2022-08-20T23:23:17.631Z,60.10
2022-08-20T23:25:46.589Z,60.20
2022-08-20T23:28:18.877Z,60.30
2022-08-20T23:30:47.535Z,60.30
2022-08-20T23:33:16.232Z,59.40
2022-08-20T23:35:45.035Z,57.90
2022-08-20T23:38:13.680Z,59.40
2022-08-20T23:40:42.226Z,60.80
2022-08-20T23:43:10.761Z,59.30
2022-08-20T23:45:41.196Z,59.30
2022-08-20T23:48:09.664Z,60.40
2022-08-20T23:50:37.991Z,60.00
2022-08-20T23:53:06.798Z,61.10
2022-08-20T23:55:35.630Z,61.10
2022-08-20T23:58:03.797Z,60.20
